sensor_id;sensor_type;location;lat;lon;timestamp;P1;durP1;ratioP1;P2;durP2;ratioP2
55150;SDS011;41041;43.162;20.538;2024-03-23T01:05:31;17.13;;;9.75;;
55150;SDS011;41041;43.162;20.538;2024-03-23T01:07:57;21.63;;;10.45;;
55150;SDS011;41041;43.162;20.538;2024-03-23T01:10:30;18.88;;;10.30;;
55150;SDS011;41041;43.162;20.538;2024-03-23T01:16:10;20.83;;;11.68;;
55150;SDS011;41041;43.162;20.538;2024-03-23T01:21:40;19.58;;;10.23;;
55150;SDS011;41041;43.162;20.538;2024-03-23T01:24:06;18.33;;;10.75;;
55150;SDS011;41041;43.162;20.538;2024-03-23T01:26:34;22.52;;;11.35;;
55150;SDS011;41041;43.162;20.538;2024-03-23T01:29:00;21.50;;;10.70;;
55150;SDS011;41041;43.162;20.538;2024-03-23T01:31:26;18.55;;;10.63;;
55150;SDS011;41041;43.162;20.538;2024-03-23T01:33:52;18.85;;;9.95;;
55150;SDS011;41041;43.162;20.538;2024-03-23T01:36:18;19.35;;;10.90;;
55150;SDS011;41041;43.162;20.538;2024-03-23T01:38:44;23.20;;;11.00;;
55150;SDS011;41041;43.162;20.538;2024-03-23T01:41:11;23.55;;;11.88;;
55150;SDS011;41041;43.162;20.538;2024-03-23T01:43:45;19.65;;;11.55;;
55150;SDS011;41041;43.162;20.538;2024-03-23T01:46:12;21.08;;;11.05;;
55150;SDS011;41041;43.162;20.538;2024-03-23T01:48:38;17.60;;;10.57;;
55150;SDS011;41041;43.162;20.538;2024-03-23T01:51:04;21.80;;;9.88;;
55150;SDS011;41041;43.162;20.538;2024-03-23T01:53:31;19.83;;;10.40;;
55150;SDS011;41041;43.162;20.538;2024-03-23T01:55:57;15.57;;;9.73;;
55150;SDS011;41041;43.162;20.538;2024-03-23T02:07:52;17.15;;;10.35;;
55150;SDS011;41041;43.162;20.538;2024-03-23T02:10:18;22.23;;;13.10;;
55150;SDS011;41041;43.162;20.538;2024-03-23T02:12:56;23.08;;;13.32;;
55150;SDS011;41041;43.162;20.538;2024-03-23T02:18:42;20.63;;;12.00;;
55150;SDS011;41041;43.162;20.538;2024-03-23T03:01:30;20.95;;;10.63;;
55150;SDS011;41041;43.162;20.538;2024-03-23T03:07:00;18.77;;;11.23;;
55150;SDS011;41041;43.162;20.538;2024-03-23T03:09:26;19.85;;;10.93;;
55150;SDS011;41041;43.162;20.538;2024-03-23T03:11:52;21.23;;;11.50;;
55150;SDS011;41041;43.162;20.538;2024-03-23T03:17:10;19.02;;;10.43;;
55150;SDS011;41041;43.162;20.538;2024-03-23T03:19:36;18.80;;;10.75;;
55150;SDS011;41041;43.162;20.538;2024-03-23T03:22:05;20.10;;;10.35;;
55150;SDS011;41041;43.162;20.538;2024-03-23T03:24:31;21.25;;;10.50;;
55150;SDS011;41041;43.162;20.538;2024-03-23T03:26:58;24.25;;;12.13;;
55150;SDS011;41041;43.162;20.538;2024-03-23T03:29:24;28.88;;;14.57;;
55150;SDS011;41041;43.162;20.538;2024-03-23T03:31:50;24.17;;;13.07;;
55150;SDS011;41041;43.162;20.538;2024-03-23T03:34:16;23.77;;;12.88;;
55150;SDS011;41041;43.162;20.538;2024-03-23T03:40:04;20.65;;;11.52;;
55150;SDS011;41041;43.162;20.538;2024-03-23T03:42:33;20.52;;;11.38;;
55150;SDS011;41041;43.162;20.538;2024-03-23T03:45:00;22.65;;;11.45;;
55150;SDS011;41041;43.162;20.538;2024-03-23T03:47:26;19.33;;;10.90;;
55150;SDS011;41041;43.162;20.538;2024-03-23T03:49:52;22.40;;;12.20;;
55150;SDS011;41041;43.162;20.538;2024-03-23T03:52:18;15.40;;;9.80;;
55150;SDS011;41041;43.162;20.538;2024-03-23T03:54:50;17.75;;;9.88;;
55150;SDS011;41041;43.162;20.538;2024-03-23T03:57:16;19.00;;;10.25;;
55150;SDS011;41041;43.162;20.538;2024-03-23T03:59:42;23.73;;;11.02;;
55150;SDS011;41041;43.162;20.538;2024-03-23T04:02:09;20.85;;;11.48;;
55150;SDS011;41041;43.162;20.538;2024-03-23T04:07:39;20.30;;;12.30;;
55150;SDS011;41041;43.162;20.538;2024-03-23T04:10:05;23.27;;;10.00;;
55150;SDS011;41041;43.162;20.538;2024-03-23T04:12:33;19.50;;;10.38;;
55150;SDS011;41041;43.162;20.538;2024-03-23T04:18:03;22.98;;;13.15;;
55150;SDS011;41041;43.162;20.538;2024-03-23T04:20:29;20.52;;;11.10;;
55150;SDS011;41041;43.162;20.538;2024-03-23T04:22:55;26.65;;;15.40;;
55150;SDS011;41041;43.162;20.538;2024-03-23T04:25:21;22.73;;;13.57;;
55150;SDS011;41041;43.162;20.538;2024-03-23T04:27:47;24.05;;;13.73;;
55150;SDS011;41041;43.162;20.538;2024-03-23T04:30:13;25.20;;;14.98;;
55150;SDS011;41041;43.162;20.538;2024-03-23T04:32:40;25.77;;;14.13;;
55150;SDS011;41041;43.162;20.538;2024-03-23T04:35:07;24.17;;;12.52;;
55150;SDS011;41041;43.162;20.538;2024-03-23T04:37:37;17.63;;;10.52;;
55150;SDS011;41041;43.162;20.538;2024-03-23T04:40:05;25.10;;;12.25;;
55150;SDS011;41041;43.162;20.538;2024-03-23T04:42:32;27.17;;;12.65;;
55150;SDS011;41041;43.162;20.538;2024-03-23T04:44:58;21.67;;;12.15;;
55150;SDS011;41041;43.162;20.538;2024-03-23T04:47:25;24.23;;;12.07;;
55150;SDS011;41041;43.162;20.538;2024-03-23T04:52:36;18.95;;;11.43;;
55150;SDS011;41041;43.162;20.538;2024-03-23T04:55:02;18.83;;;11.18;;
55150;SDS011;41041;43.162;20.538;2024-03-23T04:57:28;23.23;;;11.48;;
55150;SDS011;41041;43.162;20.538;2024-03-23T04:59:54;24.60;;;10.10;;
55150;SDS011;41041;43.162;20.538;2024-03-23T05:05:24;21.10;;;10.60;;
55150;SDS011;41041;43.162;20.538;2024-03-23T05:07:50;20.20;;;10.38;;
55150;SDS011;41041;43.162;20.538;2024-03-23T05:10:16;19.92;;;10.80;;
55150;SDS011;41041;43.162;20.538;2024-03-23T05:12:42;15.75;;;10.38;;
55150;SDS011;41041;43.162;20.538;2024-03-23T05:15:10;20.05;;;10.82;;
55150;SDS011;41041;43.162;20.538;2024-03-23T05:17:36;18.73;;;10.57;;
55150;SDS011;41041;43.162;20.538;2024-03-23T05:26:09;21.13;;;11.00;;
55150;SDS011;41041;43.162;20.538;2024-03-23T05:28:35;17.17;;;9.73;;
55150;SDS011;41041;43.162;20.538;2024-03-23T05:31:05;19.55;;;9.90;;
55150;SDS011;41041;43.162;20.538;2024-03-23T05:33:31;20.15;;;9.65;;
55150;SDS011;41041;43.162;20.538;2024-03-23T05:35:57;18.67;;;9.88;;
55150;SDS011;41041;43.162;20.538;2024-03-23T05:38:23;20.00;;;10.02;;
55150;SDS011;41041;43.162;20.538;2024-03-23T05:40:56;17.60;;;9.63;;
55150;SDS011;41041;43.162;20.538;2024-03-23T05:43:23;18.40;;;10.23;;
55150;SDS011;41041;43.162;20.538;2024-03-23T05:45:53;17.73;;;10.05;;
55150;SDS011;41041;43.162;20.538;2024-03-23T05:48:19;21.63;;;9.35;;
55150;SDS011;41041;43.162;20.538;2024-03-23T05:50:45;18.00;;;9.85;;
55150;SDS011;41041;43.162;20.538;2024-03-23T05:53:11;16.48;;;9.27;;
55150;SDS011;41041;43.162;20.538;2024-03-23T05:55:38;18.77;;;10.18;;
55150;SDS011;41041;43.162;20.538;2024-03-23T05:58:04;20.30;;;9.98;;
55150;SDS011;41041;43.162;20.538;2024-03-23T06:00:34;21.88;;;9.85;;
55150;SDS011;41041;43.162;20.538;2024-03-23T06:03:01;19.25;;;10.15;;
55150;SDS011;41041;43.162;20.538;2024-03-23T06:05:27;18.00;;;9.07;;
55150;SDS011;41041;43.162;20.538;2024-03-23T06:07:53;15.85;;;8.98;;
55150;SDS011;41041;43.162;20.538;2024-03-23T06:10:19;17.13;;;9.40;;
55150;SDS011;41041;43.162;20.538;2024-03-23T06:12:47;19.40;;;9.68;;
55150;SDS011;41041;43.162;20.538;2024-03-23T06:15:14;16.67;;;9.60;;
55150;SDS011;41041;43.162;20.538;2024-03-23T06:17:40;19.65;;;10.13;;
55150;SDS011;41041;43.162;20.538;2024-03-23T06:20:06;24.52;;;10.00;;
55150;SDS011;41041;43.162;20.538;2024-03-23T06:22:32;19.80;;;10.27;;
55150;SDS011;41041;43.162;20.538;2024-03-23T06:24:58;19.08;;;10.70;;
55150;SDS011;41041;43.162;20.538;2024-03-23T06:27:24;20.95;;;12.00;;
55150;SDS011;41041;43.162;20.538;2024-03-23T06:29:50;31.50;;;14.05;;
55150;SDS011;41041;43.162;20.538;2024-03-23T06:32:17;27.42;;;14.90;;
55150;SDS011;41041;43.162;20.538;2024-03-23T06:34:44;31.75;;;15.48;;
55150;SDS011;41041;43.162;20.538;2024-03-23T06:37:10;26.42;;;15.10;;
55150;SDS011;41041;43.162;20.538;2024-03-23T06:39:37;30.02;;;17.33;;
55150;SDS011;41041;43.162;20.538;2024-03-23T06:42:03;49.53;;;23.27;;
55150;SDS011;41041;43.162;20.538;2024-03-23T06:44:36;41.55;;;22.63;;
55150;SDS011;41041;43.162;20.538;2024-03-23T06:47:02;33.08;;;19.77;;
55150;SDS011;41041;43.162;20.538;2024-03-23T06:49:28;31.52;;;17.35;;
55150;SDS011;41041;43.162;20.538;2024-03-23T06:51:54;23.73;;;13.68;;
55150;SDS011;41041;43.162;20.538;2024-03-23T06:54:20;29.10;;;16.77;;
55150;SDS011;41041;43.162;20.538;2024-03-23T06:56:49;36.15;;;19.02;;
55150;SDS011;41041;43.162;20.538;2024-03-23T06:59:15;42.25;;;22.33;;
55150;SDS011;41041;43.162;20.538;2024-03-23T07:01:41;51.83;;;27.35;;
55150;SDS011;41041;43.162;20.538;2024-03-23T07:04:07;45.35;;;23.55;;
55150;SDS011;41041;43.162;20.538;2024-03-23T07:06:33;38.30;;;21.65;;
55150;SDS011;41041;43.162;20.538;2024-03-23T07:08:59;33.30;;;17.23;;
55150;SDS011;41041;43.162;20.538;2024-03-23T07:11:25;37.20;;;20.83;;
55150;SDS011;41041;43.162;20.538;2024-03-23T07:13:52;33.70;;;18.60;;
55150;SDS011;41041;43.162;20.538;2024-03-23T07:16:19;28.60;;;16.10;;
55150;SDS011;41041;43.162;20.538;2024-03-23T07:18:46;24.83;;;13.32;;
55150;SDS011;41041;43.162;20.538;2024-03-23T07:21:12;23.27;;;12.38;;
55150;SDS011;41041;43.162;20.538;2024-03-23T07:23:41;23.40;;;11.07;;
55150;SDS011;41041;43.162;20.538;2024-03-23T07:26:10;21.33;;;11.38;;
55150;SDS011;41041;43.162;20.538;2024-03-23T07:28:36;16.15;;;10.15;;
55150;SDS011;41041;43.162;20.538;2024-03-23T07:31:07;19.05;;;10.68;;
55150;SDS011;41041;43.162;20.538;2024-03-23T07:33:34;26.30;;;14.93;;
55150;SDS011;41041;43.162;20.538;2024-03-23T07:36:01;35.33;;;19.50;;
55150;SDS011;41041;43.162;20.538;2024-03-23T07:38:28;40.38;;;20.63;;
55150;SDS011;41041;43.162;20.538;2024-03-23T07:43:33;28.83;;;16.13;;
55150;SDS011;41041;43.162;20.538;2024-03-23T07:45:59;23.83;;;12.00;;
55150;SDS011;41041;43.162;20.538;2024-03-23T07:48:26;19.60;;;10.02;;
55150;SDS011;41041;43.162;20.538;2024-03-23T07:51:16;18.92;;;9.30;;
55150;SDS011;41041;43.162;20.538;2024-03-23T07:53:38;24.67;;;10.48;;
55150;SDS011;41041;43.162;20.538;2024-03-23T07:56:07;21.25;;;10.80;;
55150;SDS011;41041;43.162;20.538;2024-03-23T07:58:35;16.25;;;9.90;;
55150;SDS011;41041;43.162;20.538;2024-03-23T08:01:05;18.02;;;10.13;;
55150;SDS011;41041;43.162;20.538;2024-03-23T08:03:33;20.10;;;9.50;;
55150;SDS011;41041;43.162;20.538;2024-03-23T08:06:20;18.45;;;9.70;;
55150;SDS011;41041;43.162;20.538;2024-03-23T08:08:48;17.92;;;9.10;;
55150;SDS011;41041;43.162;20.538;2024-03-23T08:11:15;19.02;;;10.32;;
55150;SDS011;41041;43.162;20.538;2024-03-23T08:13:42;21.95;;;10.90;;
55150;SDS011;41041;43.162;20.538;2024-03-23T08:16:08;19.40;;;10.65;;
55150;SDS011;41041;43.162;20.538;2024-03-23T08:18:34;17.30;;;8.48;;
55150;SDS011;41041;43.162;20.538;2024-03-23T08:21:01;13.27;;;7.45;;
55150;SDS011;41041;43.162;20.538;2024-03-23T08:23:28;12.70;;;7.28;;
55150;SDS011;41041;43.162;20.538;2024-03-23T08:25:57;14.98;;;7.60;;
55150;SDS011;41041;43.162;20.538;2024-03-23T08:28:24;14.43;;;7.47;;
55150;SDS011;41041;43.162;20.538;2024-03-23T08:30:50;12.35;;;7.82;;
55150;SDS011;41041;43.162;20.538;2024-03-23T08:33:16;14.07;;;8.50;;
55150;SDS011;41041;43.162;20.538;2024-03-23T08:35:43;14.65;;;8.27;;
55150;SDS011;41041;43.162;20.538;2024-03-23T08:38:18;15.63;;;8.77;;
55150;SDS011;41041;43.162;20.538;2024-03-23T08:40:44;17.05;;;7.72;;
55150;SDS011;41041;43.162;20.538;2024-03-23T08:43:10;11.68;;;6.53;;
55150;SDS011;41041;43.162;20.538;2024-03-23T08:45:35;13.05;;;7.03;;
55150;SDS011;41041;43.162;20.538;2024-03-23T08:48:01;16.27;;;7.35;;
55150;SDS011;41041;43.162;20.538;2024-03-23T08:50:27;14.35;;;8.10;;
55150;SDS011;41041;43.162;20.538;2024-03-23T08:52:53;12.13;;;7.03;;
55150;SDS011;41041;43.162;20.538;2024-03-23T08:55:18;11.32;;;6.95;;
55150;SDS011;41041;43.162;20.538;2024-03-23T08:57:45;12.90;;;6.40;;
55150;SDS011;41041;43.162;20.538;2024-03-23T09:00:11;14.07;;;6.40;;
55150;SDS011;41041;43.162;20.538;2024-03-23T09:02:37;11.00;;;6.10;;
55150;SDS011;41041;43.162;20.538;2024-03-23T09:05:03;10.75;;;6.10;;
55150;SDS011;41041;43.162;20.538;2024-03-23T09:07:32;10.60;;;5.88;;
55150;SDS011;41041;43.162;20.538;2024-03-23T09:13:19;12.70;;;6.65;;
55150;SDS011;41041;43.162;20.538;2024-03-23T09:15:51;19.13;;;7.70;;
55150;SDS011;41041;43.162;20.538;2024-03-23T09:18:21;12.23;;;6.68;;
55150;SDS011;41041;43.162;20.538;2024-03-23T09:20:47;11.75;;;6.03;;
55150;SDS011;41041;43.162;20.538;2024-03-23T09:23:13;10.35;;;5.65;;
55150;SDS011;41041;43.162;20.538;2024-03-23T09:25:40;14.60;;;6.47;;
55150;SDS011;41041;43.162;20.538;2024-03-23T09:30:51;12.18;;;6.20;;
55150;SDS011;41041;43.162;20.538;2024-03-23T09:33:17;12.82;;;5.55;;
55150;SDS011;41041;43.162;20.538;2024-03-23T09:35:43;10.00;;;4.80;;
55150;SDS011;41041;43.162;20.538;2024-03-23T09:38:09;9.57;;;5.05;;
55150;SDS011;41041;43.162;20.538;2024-03-23T09:40:42;8.65;;;5.15;;
55150;SDS011;41041;43.162;20.538;2024-03-23T09:43:08;16.90;;;5.45;;
55150;SDS011;41041;43.162;20.538;2024-03-23T09:45:36;9.90;;;5.38;;
55150;SDS011;41041;43.162;20.538;2024-03-23T09:48:04;7.70;;;4.40;;
55150;SDS011;41041;43.162;20.538;2024-03-23T09:50:30;6.18;;;3.50;;
55150;SDS011;41041;43.162;20.538;2024-03-23T09:52:57;7.38;;;4.20;;
55150;SDS011;41041;43.162;20.538;2024-03-23T09:55:23;8.88;;;3.92;;
55150;SDS011;41041;43.162;20.538;2024-03-23T09:57:50;6.38;;;4.10;;
55150;SDS011;41041;43.162;20.538;2024-03-23T10:00:16;6.88;;;4.00;;
55150;SDS011;41041;43.162;20.538;2024-03-23T10:02:42;6.20;;;3.63;;
55150;SDS011;41041;43.162;20.538;2024-03-23T10:05:27;5.90;;;3.58;;
55150;SDS011;41041;43.162;20.538;2024-03-23T10:07:53;5.72;;;3.65;;
55150;SDS011;41041;43.162;20.538;2024-03-23T10:12:49;7.47;;;4.88;;
55150;SDS011;41041;43.162;20.538;2024-03-23T10:15:25;7.38;;;4.18;;
55150;SDS011;41041;43.162;20.538;2024-03-23T10:17:51;5.15;;;3.20;;
55150;SDS011;41041;43.162;20.538;2024-03-23T10:26:28;8.77;;;3.35;;
55150;SDS011;41041;43.162;20.538;2024-03-23T10:29:07;7.70;;;3.40;;
55150;SDS011;41041;43.162;20.538;2024-03-23T10:31:48;6.85;;;3.90;;
55150;SDS011;41041;43.162;20.538;2024-03-23T10:34:27;6.68;;;3.88;;
55150;SDS011;41041;43.162;20.538;2024-03-23T10:36:56;5.18;;;3.25;;
55150;SDS011;41041;43.162;20.538;2024-03-23T10:39:23;4.57;;;2.90;;
55150;SDS011;41041;43.162;20.538;2024-03-23T10:46:50;4.82;;;2.85;;
55150;SDS011;41041;43.162;20.538;2024-03-23T10:49:23;5.35;;;3.38;;
55150;SDS011;41041;43.162;20.538;2024-03-23T10:51:51;6.38;;;3.42;;
55150;SDS011;41041;43.162;20.538;2024-03-23T10:54:17;6.53;;;3.50;;
55150;SDS011;41041;43.162;20.538;2024-03-23T10:56:44;5.60;;;3.33;;
55150;SDS011;41041;43.162;20.538;2024-03-23T10:59:11;6.38;;;3.25;;
55150;SDS011;41041;43.162;20.538;2024-03-23T11:01:53;6.60;;;3.50;;
55150;SDS011;41041;43.162;20.538;2024-03-23T11:04:29;6.20;;;3.40;;
55150;SDS011;41041;43.162;20.538;2024-03-23T11:06:56;4.47;;;3.17;;
55150;SDS011;41041;43.162;20.538;2024-03-23T11:12:34;7.28;;;3.30;;
55150;SDS011;41041;43.162;20.538;2024-03-23T11:14:57;8.88;;;2.92;;
55150;SDS011;41041;43.162;20.538;2024-03-23T11:17:24;5.82;;;2.80;;
55150;SDS011;41041;43.162;20.538;2024-03-23T11:19:57;5.88;;;3.17;;
55150;SDS011;41041;43.162;20.538;2024-03-23T11:25:21;4.20;;;2.83;;
55150;SDS011;41041;43.162;20.538;2024-03-23T11:27:54;5.75;;;2.90;;
55150;SDS011;41041;43.162;20.538;2024-03-23T11:32:49;5.53;;;2.17;;
55150;SDS011;41041;43.162;20.538;2024-03-23T11:35:25;3.85;;;1.90;;
55150;SDS011;41041;43.162;20.538;2024-03-23T11:40:53;5.15;;;2.47;;
55150;SDS011;41041;43.162;20.538;2024-03-23T11:43:19;3.78;;;2.08;;
55150;SDS011;41041;43.162;20.538;2024-03-23T11:45:51;4.95;;;3.05;;
55150;SDS011;41041;43.162;20.538;2024-03-23T11:48:18;3.88;;;1.80;;
55150;SDS011;41041;43.162;20.538;2024-03-23T11:50:46;3.08;;;2.03;;
55150;SDS011;41041;43.162;20.538;2024-03-23T11:53:20;4.95;;;2.33;;
55150;SDS011;41041;43.162;20.538;2024-03-23T11:58:19;4.10;;;2.28;;
55150;SDS011;41041;43.162;20.538;2024-03-23T12:00:57;3.40;;;1.98;;
55150;SDS011;41041;43.162;20.538;2024-03-23T12:03:23;3.28;;;2.22;;
55150;SDS011;41041;43.162;20.538;2024-03-23T12:05:56;6.20;;;2.03;;
55150;SDS011;41041;43.162;20.538;2024-03-23T12:08:29;3.22;;;1.80;;
55150;SDS011;41041;43.162;20.538;2024-03-23T12:11:05;5.05;;;1.92;;
55150;SDS011;41041;43.162;20.538;2024-03-23T12:13:32;5.50;;;2.42;;
55150;SDS011;41041;43.162;20.538;2024-03-23T12:18:37;5.95;;;1.90;;
55150;SDS011;41041;43.162;20.538;2024-03-23T12:21:04;3.42;;;1.85;;
55150;SDS011;41041;43.162;20.538;2024-03-23T12:23:30;8.85;;;4.25;;
55150;SDS011;41041;43.162;20.538;2024-03-23T12:25:56;6.68;;;2.33;;
55150;SDS011;41041;43.162;20.538;2024-03-23T12:28:22;4.85;;;2.28;;
55150;SDS011;41041;43.162;20.538;2024-03-23T12:30:48;4.55;;;2.50;;
55150;SDS011;41041;43.162;20.538;2024-03-23T12:33:14;4.15;;;2.40;;
55150;SDS011;41041;43.162;20.538;2024-03-23T12:35:40;5.57;;;2.50;;
55150;SDS011;41041;43.162;20.538;2024-03-23T12:38:07;5.65;;;2.20;;
55150;SDS011;41041;43.162;20.538;2024-03-23T12:40:34;8.40;;;2.30;;
55150;SDS011;41041;43.162;20.538;2024-03-23T12:43:00;6.15;;;2.90;;
55150;SDS011;41041;43.162;20.538;2024-03-23T12:45:26;9.82;;;2.67;;
55150;SDS011;41041;43.162;20.538;2024-03-23T12:47:52;17.52;;;3.85;;
55150;SDS011;41041;43.162;20.538;2024-03-23T12:50:19;4.95;;;2.58;;
55150;SDS011;41041;43.162;20.538;2024-03-23T12:52:45;4.45;;;2.38;;
55150;SDS011;41041;43.162;20.538;2024-03-23T12:57:42;4.73;;;2.33;;
55150;SDS011;41041;43.162;20.538;2024-03-23T13:00:08;7.57;;;2.65;;
55150;SDS011;41041;43.162;20.538;2024-03-23T13:02:38;16.33;;;3.17;;
55150;SDS011;41041;43.162;20.538;2024-03-23T13:05:11;5.20;;;2.60;;
55150;SDS011;41041;43.162;20.538;2024-03-23T13:07:37;4.38;;;2.80;;
55150;SDS011;41041;43.162;20.538;2024-03-23T13:10:04;17.55;;;3.50;;
55150;SDS011;41041;43.162;20.538;2024-03-23T13:12:31;9.23;;;3.67;;
55150;SDS011;41041;43.162;20.538;2024-03-23T13:21:05;11.88;;;3.47;;
55150;SDS011;41041;43.162;20.538;2024-03-23T13:23:31;13.85;;;3.80;;
55150;SDS011;41041;43.162;20.538;2024-03-23T13:25:59;5.45;;;3.53;;
55150;SDS011;41041;43.162;20.538;2024-03-23T13:28:25;7.15;;;3.40;;
55150;SDS011;41041;43.162;20.538;2024-03-23T13:31:01;12.35;;;3.60;;
55150;SDS011;41041;43.162;20.538;2024-03-23T13:33:29;9.15;;;3.45;;
55150;SDS011;41041;43.162;20.538;2024-03-23T13:35:55;5.68;;;2.65;;
55150;SDS011;41041;43.162;20.538;2024-03-23T13:38:22;7.60;;;3.17;;
55150;SDS011;41041;43.162;20.538;2024-03-23T13:40:58;6.28;;;2.85;;
55150;SDS011;41041;43.162;20.538;2024-03-23T13:43:25;4.30;;;2.97;;
55150;SDS011;41041;43.162;20.538;2024-03-23T13:45:55;15.90;;;4.15;;
55150;SDS011;41041;43.162;20.538;2024-03-23T13:48:22;10.25;;;3.08;;
55150;SDS011;41041;43.162;20.538;2024-03-23T13:51:01;6.35;;;3.10;;
55150;SDS011;41041;43.162;20.538;2024-03-23T13:53:28;6.65;;;3.40;;
55150;SDS011;41041;43.162;20.538;2024-03-23T13:55:55;6.78;;;3.67;;
55150;SDS011;41041;43.162;20.538;2024-03-23T13:58:21;6.97;;;3.90;;
55150;SDS011;41041;43.162;20.538;2024-03-23T14:03:21;7.63;;;3.90;;
55150;SDS011;41041;43.162;20.538;2024-03-23T14:05:47;9.52;;;4.15;;
55150;SDS011;41041;43.162;20.538;2024-03-23T14:08:13;8.52;;;4.40;;
55150;SDS011;41041;43.162;20.538;2024-03-23T14:10:42;8.40;;;4.55;;
55150;SDS011;41041;43.162;20.538;2024-03-23T14:13:08;12.73;;;4.82;;
55150;SDS011;41041;43.162;20.538;2024-03-23T14:15:34;8.48;;;5.13;;
55150;SDS011;41041;43.162;20.538;2024-03-23T14:18:02;13.05;;;5.57;;
55150;SDS011;41041;43.162;20.538;2024-03-23T14:20:28;7.85;;;5.05;;
55150;SDS011;41041;43.162;20.538;2024-03-23T14:22:54;15.95;;;6.03;;
55150;SDS011;41041;43.162;20.538;2024-03-23T14:25:23;23.13;;;5.82;;
55150;SDS011;41041;43.162;20.538;2024-03-23T14:27:52;10.02;;;5.90;;
55150;SDS011;41041;43.162;20.538;2024-03-23T14:30:18;14.45;;;6.28;;
55150;SDS011;41041;43.162;20.538;2024-03-23T14:35:13;10.30;;;5.10;;
55150;SDS011;41041;43.162;20.538;2024-03-23T14:37:39;9.32;;;5.10;;
55150;SDS011;41041;43.162;20.538;2024-03-23T14:40:09;9.77;;;5.50;;
55150;SDS011;41041;43.162;20.538;2024-03-23T14:42:37;14.10;;;6.78;;
55150;SDS011;41041;43.162;20.538;2024-03-23T14:45:04;15.02;;;6.90;;
55150;SDS011;41041;43.162;20.538;2024-03-23T14:47:30;21.40;;;8.02;;
55150;SDS011;41041;43.162;20.538;2024-03-23T14:49:56;16.25;;;6.53;;
55150;SDS011;41041;43.162;20.538;2024-03-23T14:52:23;16.50;;;8.90;;
55150;SDS011;41041;43.162;20.538;2024-03-23T14:54:49;11.98;;;4.95;;
55150;SDS011;41041;43.162;20.538;2024-03-23T14:57:15;11.13;;;5.43;;
55150;SDS011;41041;43.162;20.538;2024-03-23T14:59:44;22.23;;;6.90;;
55150;SDS011;41041;43.162;20.538;2024-03-23T15:02:10;14.25;;;7.88;;
55150;SDS011;41041;43.162;20.538;2024-03-23T15:04:45;17.58;;;9.90;;
55150;SDS011;41041;43.162;20.538;2024-03-23T15:07:17;19.10;;;10.90;;
55150;SDS011;41041;43.162;20.538;2024-03-23T15:12:18;19.27;;;8.50;;
55150;SDS011;41041;43.162;20.538;2024-03-23T15:14:44;13.77;;;8.73;;
55150;SDS011;41041;43.162;20.538;2024-03-23T15:17:13;16.83;;;12.18;;
55150;SDS011;41041;43.162;20.538;2024-03-23T15:19:39;10.65;;;5.13;;
55150;SDS011;41041;43.162;20.538;2024-03-23T15:22:06;13.35;;;6.47;;
55150;SDS011;41041;43.162;20.538;2024-03-23T15:24:34;16.98;;;6.40;;
55150;SDS011;41041;43.162;20.538;2024-03-23T15:27:02;10.23;;;5.28;;
55150;SDS011;41041;43.162;20.538;2024-03-23T15:29:28;9.73;;;4.60;;
55150;SDS011;41041;43.162;20.538;2024-03-23T15:31:54;10.32;;;5.28;;
55150;SDS011;41041;43.162;20.538;2024-03-23T15:34:21;8.82;;;5.32;;
55150;SDS011;41041;43.162;20.538;2024-03-23T15:36:48;9.20;;;5.50;;
55150;SDS011;41041;43.162;20.538;2024-03-23T15:39:15;12.77;;;4.63;;
55150;SDS011;41041;43.162;20.538;2024-03-23T15:41:49;11.32;;;5.03;;
55150;SDS011;41041;43.162;20.538;2024-03-23T15:44:15;8.73;;;5.05;;
55150;SDS011;41041;43.162;20.538;2024-03-23T15:46:41;19.75;;;5.88;;
55150;SDS011;41041;43.162;20.538;2024-03-23T15:49:07;9.68;;;4.75;;
55150;SDS011;41041;43.162;20.538;2024-03-23T15:51:34;37.38;;;5.93;;
55150;SDS011;41041;43.162;20.538;2024-03-23T15:54:02;9.10;;;4.53;;
55150;SDS011;41041;43.162;20.538;2024-03-23T15:56:31;18.65;;;4.72;;
55150;SDS011;41041;43.162;20.538;2024-03-23T15:58:57;16.15;;;4.80;;
55150;SDS011;41041;43.162;20.538;2024-03-23T16:01:30;16.30;;;5.55;;
55150;SDS011;41041;43.162;20.538;2024-03-23T16:03:58;14.20;;;6.72;;
55150;SDS011;41041;43.162;20.538;2024-03-23T16:06:24;12.85;;;7.05;;
55150;SDS011;41041;43.162;20.538;2024-03-23T16:08:51;11.10;;;5.00;;
55150;SDS011;41041;43.162;20.538;2024-03-23T16:11:17;12.65;;;6.25;;
55150;SDS011;41041;43.162;20.538;2024-03-23T16:13:43;16.35;;;7.60;;
55150;SDS011;41041;43.162;20.538;2024-03-23T16:16:14;15.88;;;7.80;;
55150;SDS011;41041;43.162;20.538;2024-03-23T16:18:42;12.88;;;7.50;;
55150;SDS011;41041;43.162;20.538;2024-03-23T16:21:11;18.00;;;9.93;;
55150;SDS011;41041;43.162;20.538;2024-03-23T16:23:37;16.25;;;9.95;;
55150;SDS011;41041;43.162;20.538;2024-03-23T16:26:03;15.55;;;7.20;;
55150;SDS011;41041;43.162;20.538;2024-03-23T16:28:29;12.95;;;6.25;;
55150;SDS011;41041;43.162;20.538;2024-03-23T16:31:03;11.93;;;7.43;;
55150;SDS011;41041;43.162;20.538;2024-03-23T16:33:31;11.27;;;7.60;;
55150;SDS011;41041;43.162;20.538;2024-03-23T16:35:57;16.73;;;9.77;;
55150;SDS011;41041;43.162;20.538;2024-03-23T16:38:26;17.20;;;9.82;;
55150;SDS011;41041;43.162;20.538;2024-03-23T16:40:59;14.13;;;6.88;;
55150;SDS011;41041;43.162;20.538;2024-03-23T16:43:28;16.90;;;7.72;;
55150;SDS011;41041;43.162;20.538;2024-03-23T16:45:55;15.70;;;7.65;;
55150;SDS011;41041;43.162;20.538;2024-03-23T16:48:22;12.57;;;6.35;;
55150;SDS011;41041;43.162;20.538;2024-03-23T16:50:49;9.95;;;6.00;;
55150;SDS011;41041;43.162;20.538;2024-03-23T16:53:15;14.35;;;7.65;;
55150;SDS011;41041;43.162;20.538;2024-03-23T16:55:41;15.98;;;7.97;;
55150;SDS011;41041;43.162;20.538;2024-03-23T17:00:37;20.45;;;10.45;;
55150;SDS011;41041;43.162;20.538;2024-03-23T17:03:03;21.02;;;11.18;;
55150;SDS011;41041;43.162;20.538;2024-03-23T17:05:38;32.72;;;14.98;;
55150;SDS011;41041;43.162;20.538;2024-03-23T17:08:04;26.98;;;14.18;;
55150;SDS011;41041;43.162;20.538;2024-03-23T17:10:31;41.15;;;16.92;;
55150;SDS011;41041;43.162;20.538;2024-03-23T17:12:58;37.72;;;17.73;;
55150;SDS011;41041;43.162;20.538;2024-03-23T17:15:25;26.95;;;13.18;;
55150;SDS011;41041;43.162;20.538;2024-03-23T17:17:51;28.60;;;10.90;;
55150;SDS011;41041;43.162;20.538;2024-03-23T17:20:18;18.08;;;9.85;;
55150;SDS011;41041;43.162;20.538;2024-03-23T17:22:44;18.45;;;8.45;;
55150;SDS011;41041;43.162;20.538;2024-03-23T17:25:12;13.18;;;6.90;;
55150;SDS011;41041;43.162;20.538;2024-03-23T17:27:38;12.43;;;6.75;;
55150;SDS011;41041;43.162;20.538;2024-03-23T17:30:04;15.30;;;7.50;;
55150;SDS011;41041;43.162;20.538;2024-03-23T17:32:32;18.50;;;7.50;;
55150;SDS011;41041;43.162;20.538;2024-03-23T17:34:58;14.20;;;6.45;;
55150;SDS011;41041;43.162;20.538;2024-03-23T17:37:24;10.38;;;6.32;;
55150;SDS011;41041;43.162;20.538;2024-03-23T17:39:51;13.63;;;6.68;;
55150;SDS011;41041;43.162;20.538;2024-03-23T17:42:17;17.25;;;7.45;;
55150;SDS011;41041;43.162;20.538;2024-03-23T17:44:43;18.13;;;9.07;;
55150;SDS011;41041;43.162;20.538;2024-03-23T17:47:09;18.02;;;8.60;;
55150;SDS011;41041;43.162;20.538;2024-03-23T17:49:35;16.25;;;8.85;;
55150;SDS011;41041;43.162;20.538;2024-03-23T17:52:07;15.57;;;8.80;;